Airfield :
LOGIN :

Register | Disclaimer

   EN    FR    IT 

 










Legend :    VFR   Marginal VFR   IFR   Intensive IFR   Very Intensive IFR
Visi :
Ceiling :
>= 8 km
>= 3000ft
5 to 8 km
1000 to 3000 ft
1500m to 5 km
500 to 1000 ft
800 to 1500m
200 to 500 ft
< 800m
< 200 ft
Symbols :   Thunderstorms  Fog  Heavy snow  Heavy precipitations  Wind > 20 kt
SIGMETs :     Misc.  Thunderstorms  Icing  Turbulence  Mountain Waves  Volcanic Ashes






- Airport Elevation : 122 ft
- IATA code : TXL


EDDT - Berlin Tegel Int.

CURRENT METAR :
  • 201750Z 18012KT CAVOK 07/04 Q1012 NOSIG

EXPIRED METARs :
  • 201720Z 18011KT CAVOK 07/05 Q1013 NOSIG
  • 201650Z 18010KT CAVOK 07/05 Q1013 NOSIG
  • 201620Z 18011KT 9999 FEW012 07/05 Q1013 NOSIG
  • 201550Z 18009KT 150V210 9999 FEW012 07/05 Q1014 NOSIG
  • 201520Z 19010KT 9999 SCT012 06/05 Q1015 NOSIG

TAF TAF EDDT
Valid from the 20 at 18:00 until the 21 at 18:00 UTC


201700Z 2018/2118 19011KT 9999 FEW040
BECMG 2022/2101 21015G25KT RA
BECMG 2101/2103 28020G30KT NSW
TEMPO 2103/2105 28025G40KT
PROB30
TEMPO 2103/2106 3500 SHRAGS BKN014CB
BECMG 2113/2116 24012KT



MET'MAP, your aeronautical weather chart ! - Copyright ORBIFLY December 2007 - Disclaimer

ORBIFLY MET'MAP TEAM :

Programming & Development : Alexandra Zaïnal
Concept & original design : Baudouin d'Aumeries
Assistance for programming : Marc-Olivier Méhu
Technical & hardware support : Manuel Goepfert

Contact : metmap@orbifly.com




SOURCES & CREDITS :

   NOAA